sensor_id;sensor_type;location;lat;lon;timestamp;P1;durP1;ratioP1;P2;durP2;ratioP2
70908;SDS011;58554;52.006;5.926;2022-07-21T00:01:05;9.87;;;8.77;;
70908;SDS011;58554;52.006;5.926;2022-07-21T00:03:32;9.00;;;8.13;;
70908;SDS011;58554;52.006;5.926;2022-07-21T00:05:59;9.70;;;8.57;;
70908;SDS011;58554;52.006;5.926;2022-07-21T00:08:26;9.77;;;8.47;;
70908;SDS011;58554;52.006;5.926;2022-07-21T00:10:52;9.20;;;8.30;;
70908;SDS011;58554;52.006;5.926;2022-07-21T00:13:19;9.67;;;8.57;;
70908;SDS011;58554;52.006;5.926;2022-07-21T00:15:46;10.17;;;8.40;;
70908;SDS011;58554;52.006;5.926;2022-07-21T00:18:16;8.70;;;7.90;;
70908;SDS011;58554;52.006;5.926;2022-07-21T00:20:43;8.30;;;7.50;;
70908;SDS011;58554;52.006;5.926;2022-07-21T00:23:10;8.93;;;7.90;;
70908;SDS011;58554;52.006;5.926;2022-07-21T00:25:37;8.53;;;7.63;;
70908;SDS011;58554;52.006;5.926;2022-07-21T00:28:04;8.93;;;7.57;;
70908;SDS011;58554;52.006;5.926;2022-07-21T00:30:31;7.40;;;6.60;;
70908;SDS011;58554;52.006;5.926;2022-07-21T00:32:58;7.10;;;6.40;;
70908;SDS011;58554;52.006;5.926;2022-07-21T00:35:27;7.40;;;6.57;;
70908;SDS011;58554;52.006;5.926;2022-07-21T00:37:54;7.13;;;6.43;;
70908;SDS011;58554;52.006;5.926;2022-07-21T00:40:21;7.57;;;6.77;;
70908;SDS011;58554;52.006;5.926;2022-07-21T00:42:48;8.67;;;7.07;;
70908;SDS011;58554;52.006;5.926;2022-07-21T00:45:14;7.03;;;6.43;;
70908;SDS011;58554;52.006;5.926;2022-07-21T00:47:41;7.87;;;7.07;;
70908;SDS011;58554;52.006;5.926;2022-07-21T00:50:11;8.03;;;7.23;;
70908;SDS011;58554;52.006;5.926;2022-07-21T00:52:43;8.07;;;7.27;;
70908;SDS011;58554;52.006;5.926;2022-07-21T00:55:11;7.80;;;7.10;;
70908;SDS011;58554;52.006;5.926;2022-07-21T00:57:41;10.50;;;7.55;;
70908;SDS011;58554;52.006;5.926;2022-07-21T01:00:09;9.20;;;8.30;;
70908;SDS011;58554;52.006;5.926;2022-07-21T01:02:39;11.07;;;8.23;;
70908;SDS011;58554;52.006;5.926;2022-07-21T01:05:07;9.83;;;8.83;;
70908;SDS011;58554;52.006;5.926;2022-07-21T01:07:36;8.97;;;8.17;;
70908;SDS011;58554;52.006;5.926;2022-07-21T01:10:06;10.80;;;9.70;;
70908;SDS011;58554;52.006;5.926;2022-07-21T01:12:33;12.83;;;10.13;;
70908;SDS011;58554;52.006;5.926;2022-07-21T01:15:01;11.50;;;10.30;;
70908;SDS011;58554;52.006;5.926;2022-07-21T01:17:28;11.53;;;10.33;;
70908;SDS011;58554;52.006;5.926;2022-07-21T01:19:55;11.33;;;10.23;;
70908;SDS011;58554;52.006;5.926;2022-07-21T01:22:24;12.60;;;11.17;;
70908;SDS011;58554;52.006;5.926;2022-07-21T01:24:52;12.38;;;10.55;;
70908;SDS011;58554;52.006;5.926;2022-07-21T01:27:18;12.13;;;10.83;;
70908;SDS011;58554;52.006;5.926;2022-07-21T01:29:44;12.50;;;10.73;;
70908;SDS011;58554;52.006;5.926;2022-07-21T01:32:11;10.70;;;9.60;;
70908;SDS011;58554;52.006;5.926;2022-07-21T01:34:37;10.90;;;9.70;;
70908;SDS011;58554;52.006;5.926;2022-07-21T01:37:04;12.00;;;10.83;;
70908;SDS011;58554;52.006;5.926;2022-07-21T01:39:33;12.17;;;10.87;;
70908;SDS011;58554;52.006;5.926;2022-07-21T01:41:59;11.80;;;10.40;;
70908;SDS011;58554;52.006;5.926;2022-07-21T01:44:27;11.90;;;10.73;;
70908;SDS011;58554;52.006;5.926;2022-07-21T01:46:54;14.18;;;10.27;;
70908;SDS011;58554;52.006;5.926;2022-07-21T01:49:21;12.20;;;10.30;;
70908;SDS011;58554;52.006;5.926;2022-07-21T01:51:47;12.43;;;10.57;;
70908;SDS011;58554;52.006;5.926;2022-07-21T01:54:15;12.10;;;10.80;;
70908;SDS011;58554;52.006;5.926;2022-07-21T01:56:45;12.27;;;10.97;;
70908;SDS011;58554;52.006;5.926;2022-07-21T01:59:11;11.63;;;10.53;;
70908;SDS011;58554;52.006;5.926;2022-07-21T02:01:38;12.23;;;11.00;;
70908;SDS011;58554;52.006;5.926;2022-07-21T02:04:04;13.00;;;11.60;;
70908;SDS011;58554;52.006;5.926;2022-07-21T02:06:31;11.87;;;10.77;;
70908;SDS011;58554;52.006;5.926;2022-07-21T02:08:59;12.70;;;11.33;;
70908;SDS011;58554;52.006;5.926;2022-07-21T02:11:25;13.97;;;11.60;;
70908;SDS011;58554;52.006;5.926;2022-07-21T02:13:55;13.47;;;12.07;;
70908;SDS011;58554;52.006;5.926;2022-07-21T02:16:21;14.37;;;12.73;;
70908;SDS011;58554;52.006;5.926;2022-07-21T02:18:48;14.43;;;13.00;;
70908;SDS011;58554;52.006;5.926;2022-07-21T02:21:15;14.20;;;12.77;;
70908;SDS011;58554;52.006;5.926;2022-07-21T02:23:41;13.77;;;12.47;;
70908;SDS011;58554;52.006;5.926;2022-07-21T02:26:08;17.08;;;13.48;;
70908;SDS011;58554;52.006;5.926;2022-07-21T02:28:34;16.43;;;13.73;;
70908;SDS011;58554;52.006;5.926;2022-07-21T02:31:04;15.60;;;13.43;;
70908;SDS011;58554;52.006;5.926;2022-07-21T02:33:30;14.70;;;13.10;;
70908;SDS011;58554;52.006;5.926;2022-07-21T02:35:57;15.40;;;13.90;;
70908;SDS011;58554;52.006;5.926;2022-07-21T02:38:23;14.80;;;13.20;;
70908;SDS011;58554;52.006;5.926;2022-07-21T02:40:50;15.00;;;13.43;;
70908;SDS011;58554;52.006;5.926;2022-07-21T02:43:17;17.60;;;13.67;;
70908;SDS011;58554;52.006;5.926;2022-07-21T02:45:43;16.10;;;14.40;;
70908;SDS011;58554;52.006;5.926;2022-07-21T02:48:13;15.90;;;14.20;;
70908;SDS011;58554;52.006;5.926;2022-07-21T02:50:41;17.83;;;14.90;;
70908;SDS011;58554;52.006;5.926;2022-07-21T02:53:10;17.30;;;15.13;;
70908;SDS011;58554;52.006;5.926;2022-07-21T02:55:39;16.67;;;14.80;;
70908;SDS011;58554;52.006;5.926;2022-07-21T02:58:08;18.90;;;15.53;;
70908;SDS011;58554;52.006;5.926;2022-07-21T03:00:38;17.30;;;15.30;;
70908;SDS011;58554;52.006;5.926;2022-07-21T03:03:09;16.17;;;14.47;;
70908;SDS011;58554;52.006;5.926;2022-07-21T03:05:38;17.33;;;14.77;;
70908;SDS011;58554;52.006;5.926;2022-07-21T03:08:07;16.97;;;15.17;;
70908;SDS011;58554;52.006;5.926;2022-07-21T03:10:36;16.93;;;15.23;;
70908;SDS011;58554;52.006;5.926;2022-07-21T03:13:04;16.60;;;14.90;;
70908;SDS011;58554;52.006;5.926;2022-07-21T03:15:31;18.67;;;15.57;;
70908;SDS011;58554;52.006;5.926;2022-07-21T03:17:59;17.07;;;14.87;;
70908;SDS011;58554;52.006;5.926;2022-07-21T03:20:27;17.47;;;15.50;;
70908;SDS011;58554;52.006;5.926;2022-07-21T03:23:00;17.73;;;15.87;;
70908;SDS011;58554;52.006;5.926;2022-07-21T03:27:54;18.30;;;15.43;;
70908;SDS011;58554;52.006;5.926;2022-07-21T03:30:22;20.27;;;17.23;;
70908;SDS011;58554;52.006;5.926;2022-07-21T03:32:49;17.87;;;16.07;;
70908;SDS011;58554;52.006;5.926;2022-07-21T03:35:17;18.17;;;16.27;;
70908;SDS011;58554;52.006;5.926;2022-07-21T03:37:45;18.13;;;16.17;;
70908;SDS011;58554;52.006;5.926;2022-07-21T03:40:19;18.60;;;16.60;;
70908;SDS011;58554;52.006;5.926;2022-07-21T03:42:48;18.90;;;16.83;;
70908;SDS011;58554;52.006;5.926;2022-07-21T03:45:15;19.90;;;16.37;;
70908;SDS011;58554;52.006;5.926;2022-07-21T03:47:43;17.57;;;15.67;;
70908;SDS011;58554;52.006;5.926;2022-07-21T03:50:09;18.17;;;16.37;;
70908;SDS011;58554;52.006;5.926;2022-07-21T03:52:37;18.07;;;16.17;;
70908;SDS011;58554;52.006;5.926;2022-07-21T03:55:04;19.03;;;16.97;;
70908;SDS011;58554;52.006;5.926;2022-07-21T03:57:34;17.57;;;15.37;;
70908;SDS011;58554;52.006;5.926;2022-07-21T04:00:04;19.57;;;16.50;;
70908;SDS011;58554;52.006;5.926;2022-07-21T04:02:35;19.40;;;16.67;;
70908;SDS011;58554;52.006;5.926;2022-07-21T04:05:02;21.23;;;17.90;;
70908;SDS011;58554;52.006;5.926;2022-07-21T04:07:30;22.27;;;18.00;;
70908;SDS011;58554;52.006;5.926;2022-07-21T04:09:56;20.67;;;18.40;;
70908;SDS011;58554;52.006;5.926;2022-07-21T04:12:24;23.63;;;19.60;;
70908;SDS011;58554;52.006;5.926;2022-07-21T04:14:55;21.23;;;17.88;;
70908;SDS011;58554;52.006;5.926;2022-07-21T04:17:22;27.00;;;19.77;;
70908;SDS011;58554;52.006;5.926;2022-07-21T04:19:48;22.97;;;19.07;;
70908;SDS011;58554;52.006;5.926;2022-07-21T04:22:15;20.23;;;17.30;;
70908;SDS011;58554;52.006;5.926;2022-07-21T04:24:41;21.10;;;18.87;;
70908;SDS011;58554;52.006;5.926;2022-07-21T04:27:08;23.25;;;18.55;;
70908;SDS011;58554;52.006;5.926;2022-07-21T04:29:35;23.20;;;18.37;;
70908;SDS011;58554;52.006;5.926;2022-07-21T04:32:04;22.07;;;18.90;;
70908;SDS011;58554;52.006;5.926;2022-07-21T04:34:31;22.67;;;18.53;;
70908;SDS011;58554;52.006;5.926;2022-07-21T04:36:58;21.73;;;19.40;;
70908;SDS011;58554;52.006;5.926;2022-07-21T04:39:24;24.10;;;19.67;;
70908;SDS011;58554;52.006;5.926;2022-07-21T04:41:51;24.67;;;19.92;;
70908;SDS011;58554;52.006;5.926;2022-07-21T04:44:17;24.50;;;19.80;;
70908;SDS011;58554;52.006;5.926;2022-07-21T04:46:44;25.77;;;20.57;;
70908;SDS011;58554;52.006;5.926;2022-07-21T04:49:13;24.77;;;20.50;;
70908;SDS011;58554;52.006;5.926;2022-07-21T04:51:39;26.98;;;21.88;;
70908;SDS011;58554;52.006;5.926;2022-07-21T04:54:06;24.77;;;20.10;;
70908;SDS011;58554;52.006;5.926;2022-07-21T04:56:33;27.45;;;22.35;;
70908;SDS011;58554;52.006;5.926;2022-07-21T04:59:00;32.90;;;22.83;;
70908;SDS011;58554;52.006;5.926;2022-07-21T05:01:27;29.37;;;23.07;;
70908;SDS011;58554;52.006;5.926;2022-07-21T05:03:54;31.70;;;23.10;;
70908;SDS011;58554;52.006;5.926;2022-07-21T05:06:23;30.13;;;23.23;;
70908;SDS011;58554;52.006;5.926;2022-07-21T05:08:50;31.27;;;23.03;;
70908;SDS011;58554;52.006;5.926;2022-07-21T05:11:16;26.33;;;20.00;;
70908;SDS011;58554;52.006;5.926;2022-07-21T05:13:43;22.83;;;17.93;;
70908;SDS011;58554;52.006;5.926;2022-07-21T05:16:10;24.77;;;20.00;;
70908;SDS011;58554;52.006;5.926;2022-07-21T05:18:37;29.70;;;21.00;;
70908;SDS011;58554;52.006;5.926;2022-07-21T05:21:03;25.03;;;19.70;;
70908;SDS011;58554;52.006;5.926;2022-07-21T05:23:32;28.37;;;21.17;;
70908;SDS011;58554;52.006;5.926;2022-07-21T05:25:59;27.43;;;21.83;;
70908;SDS011;58554;52.006;5.926;2022-07-21T05:28:26;30.13;;;21.73;;
70908;SDS011;58554;52.006;5.926;2022-07-21T05:30:53;28.37;;;22.33;;
70908;SDS011;58554;52.006;5.926;2022-07-21T05:33:20;29.10;;;21.50;;
70908;SDS011;58554;52.006;5.926;2022-07-21T05:35:47;33.10;;;22.87;;
70908;SDS011;58554;52.006;5.926;2022-07-21T05:38:13;31.20;;;22.27;;
70908;SDS011;58554;52.006;5.926;2022-07-21T05:40:42;33.57;;;23.20;;
70908;SDS011;58554;52.006;5.926;2022-07-21T05:43:09;33.10;;;23.80;;
70908;SDS011;58554;52.006;5.926;2022-07-21T05:45:35;38.57;;;25.60;;
70908;SDS011;58554;52.006;5.926;2022-07-21T05:48:02;35.07;;;24.73;;
70908;SDS011;58554;52.006;5.926;2022-07-21T05:50:28;37.00;;;25.37;;
70908;SDS011;58554;52.006;5.926;2022-07-21T05:52:55;39.50;;;26.83;;
70908;SDS011;58554;52.006;5.926;2022-07-21T05:55:21;35.70;;;25.37;;
70908;SDS011;58554;52.006;5.926;2022-07-21T05:57:51;39.20;;;26.38;;
70908;SDS011;58554;52.006;5.926;2022-07-21T06:00:17;38.07;;;27.23;;
70908;SDS011;58554;52.006;5.926;2022-07-21T06:02:44;38.57;;;27.43;;
70908;SDS011;58554;52.006;5.926;2022-07-21T06:05:12;40.37;;;28.47;;
70908;SDS011;58554;52.006;5.926;2022-07-21T06:07:40;38.87;;;28.77;;
70908;SDS011;58554;52.006;5.926;2022-07-21T06:10:07;37.00;;;27.00;;
70908;SDS011;58554;52.006;5.926;2022-07-21T06:12:35;34.47;;;26.03;;
70908;SDS011;58554;52.006;5.926;2022-07-21T06:15:04;40.72;;;28.35;;
70908;SDS011;58554;52.006;5.926;2022-07-21T06:17:37;37.47;;;25.55;;
70908;SDS011;58554;52.006;5.926;2022-07-21T06:20:06;31.80;;;24.47;;
70908;SDS011;58554;52.006;5.926;2022-07-21T06:22:36;32.13;;;24.60;;
70908;SDS011;58554;52.006;5.926;2022-07-21T06:25:03;33.00;;;23.47;;
70908;SDS011;58554;52.006;5.926;2022-07-21T06:27:31;33.53;;;25.63;;
70908;SDS011;58554;52.006;5.926;2022-07-21T06:29:58;32.30;;;23.83;;
70908;SDS011;58554;52.006;5.926;2022-07-21T06:32:28;29.53;;;23.03;;
70908;SDS011;58554;52.006;5.926;2022-07-21T06:34:54;32.57;;;24.20;;
70908;SDS011;58554;52.006;5.926;2022-07-21T06:37:20;34.43;;;24.47;;
70908;SDS011;58554;52.006;5.926;2022-07-21T06:39:47;30.27;;;22.73;;
70908;SDS011;58554;52.006;5.926;2022-07-21T06:42:13;29.77;;;23.53;;
70908;SDS011;58554;52.006;5.926;2022-07-21T06:44:40;29.17;;;22.50;;
70908;SDS011;58554;52.006;5.926;2022-07-21T06:47:06;29.33;;;22.67;;
70908;SDS011;58554;52.006;5.926;2022-07-21T06:49:35;30.57;;;21.80;;
70908;SDS011;58554;52.006;5.926;2022-07-21T06:52:02;31.13;;;23.53;;
70908;SDS011;58554;52.006;5.926;2022-07-21T06:54:29;31.75;;;23.45;;
70908;SDS011;58554;52.006;5.926;2022-07-21T06:56:55;30.03;;;23.13;;
70908;SDS011;58554;52.006;5.926;2022-07-21T06:59:22;31.57;;;22.77;;
70908;SDS011;58554;52.006;5.926;2022-07-21T07:01:48;29.30;;;22.57;;
70908;SDS011;58554;52.006;5.926;2022-07-21T07:04:14;29.93;;;23.20;;
70908;SDS011;58554;52.006;5.926;2022-07-21T07:06:43;32.17;;;24.33;;
70908;SDS011;58554;52.006;5.926;2022-07-21T07:09:10;31.98;;;24.65;;
70908;SDS011;58554;52.006;5.926;2022-07-21T07:11:36;29.13;;;22.33;;
70908;SDS011;58554;52.006;5.926;2022-07-21T07:14:03;30.70;;;22.80;;
70908;SDS011;58554;52.006;5.926;2022-07-21T07:16:29;31.17;;;24.00;;
70908;SDS011;58554;52.006;5.926;2022-07-21T07:18:55;32.17;;;24.77;;
70908;SDS011;58554;52.006;5.926;2022-07-21T07:21:22;32.93;;;24.57;;
70908;SDS011;58554;52.006;5.926;2022-07-21T07:23:51;33.83;;;25.43;;
70908;SDS011;58554;52.006;5.926;2022-07-21T07:26:17;41.40;;;26.87;;
70908;SDS011;58554;52.006;5.926;2022-07-21T07:28:44;37.03;;;25.97;;
70908;SDS011;58554;52.006;5.926;2022-07-21T07:31:10;29.37;;;24.53;;
70908;SDS011;58554;52.006;5.926;2022-07-21T07:33:37;34.80;;;26.30;;
70908;SDS011;58554;52.006;5.926;2022-07-21T07:36:03;33.57;;;24.87;;
70908;SDS011;58554;52.006;5.926;2022-07-21T07:38:31;33.87;;;25.37;;
70908;SDS011;58554;52.006;5.926;2022-07-21T07:41:00;36.17;;;24.10;;
70908;SDS011;58554;52.006;5.926;2022-07-21T07:43:27;36.58;;;25.00;;
70908;SDS011;58554;52.006;5.926;2022-07-21T07:45:54;31.47;;;24.17;;
70908;SDS011;58554;52.006;5.926;2022-07-21T07:48:20;32.43;;;23.77;;
70908;SDS011;58554;52.006;5.926;2022-07-21T07:50:47;32.97;;;22.85;;
70908;SDS011;58554;52.006;5.926;2022-07-21T07:53:13;33.63;;;23.27;;
70908;SDS011;58554;52.006;5.926;2022-07-21T07:55:39;34.00;;;22.23;;
70908;SDS011;58554;52.006;5.926;2022-07-21T07:58:08;29.77;;;22.47;;
70908;SDS011;58554;52.006;5.926;2022-07-21T08:00:35;28.92;;;22.23;;
70908;SDS011;58554;52.006;5.926;2022-07-21T08:03:01;30.90;;;21.90;;
70908;SDS011;58554;52.006;5.926;2022-07-21T08:05:28;32.67;;;21.48;;
70908;SDS011;58554;52.006;5.926;2022-07-21T08:07:54;31.70;;;21.25;;
70908;SDS011;58554;52.006;5.926;2022-07-21T08:10:21;31.43;;;20.47;;
70908;SDS011;58554;52.006;5.926;2022-07-21T08:12:48;29.50;;;19.90;;
70908;SDS011;58554;52.006;5.926;2022-07-21T08:15:17;37.03;;;21.77;;
70908;SDS011;58554;52.006;5.926;2022-07-21T08:17:43;33.77;;;22.60;;
70908;SDS011;58554;52.006;5.926;2022-07-21T08:20:10;30.10;;;20.97;;
70908;SDS011;58554;52.006;5.926;2022-07-21T08:22:37;33.00;;;22.47;;
70908;SDS011;58554;52.006;5.926;2022-07-21T08:25:04;30.53;;;22.00;;
70908;SDS011;58554;52.006;5.926;2022-07-21T08:27:31;32.23;;;22.00;;
70908;SDS011;58554;52.006;5.926;2022-07-21T08:29:58;31.47;;;21.00;;
70908;SDS011;58554;52.006;5.926;2022-07-21T08:32:27;29.10;;;20.83;;
70908;SDS011;58554;52.006;5.926;2022-07-21T08:34:53;31.57;;;21.07;;
70908;SDS011;58554;52.006;5.926;2022-07-21T08:37:20;30.63;;;20.83;;
70908;SDS011;58554;52.006;5.926;2022-07-21T08:39:47;29.43;;;20.40;;
70908;SDS011;58554;52.006;5.926;2022-07-21T08:42:14;28.70;;;20.00;;
70908;SDS011;58554;52.006;5.926;2022-07-21T08:44:42;30.93;;;20.20;;
70908;SDS011;58554;52.006;5.926;2022-07-21T08:47:10;25.07;;;19.27;;
70908;SDS011;58554;52.006;5.926;2022-07-21T08:49:39;28.33;;;20.43;;
70908;SDS011;58554;52.006;5.926;2022-07-21T08:52:07;29.27;;;19.83;;
70908;SDS011;58554;52.006;5.926;2022-07-21T08:54:34;32.67;;;19.20;;
70908;SDS011;58554;52.006;5.926;2022-07-21T08:57:00;23.92;;;18.40;;
70908;SDS011;58554;52.006;5.926;2022-07-21T08:59:26;27.02;;;19.25;;
70908;SDS011;58554;52.006;5.926;2022-07-21T09:01:53;29.03;;;19.63;;
70908;SDS011;58554;52.006;5.926;2022-07-21T09:04:21;25.27;;;18.47;;
70908;SDS011;58554;52.006;5.926;2022-07-21T09:06:55;30.87;;;20.70;;
70908;SDS011;58554;52.006;5.926;2022-07-21T09:09:24;28.70;;;20.37;;
70908;SDS011;58554;52.006;5.926;2022-07-21T09:11:52;28.00;;;19.03;;
70908;SDS011;58554;52.006;5.926;2022-07-21T09:14:21;28.43;;;20.17;;
70908;SDS011;58554;52.006;5.926;2022-07-21T09:16:50;34.17;;;20.97;;
70908;SDS011;58554;52.006;5.926;2022-07-21T09:19:21;29.55;;;21.65;;
70908;SDS011;58554;52.006;5.926;2022-07-21T09:21:52;29.43;;;19.77;;
70908;SDS011;58554;52.006;5.926;2022-07-21T09:24:25;27.90;;;19.50;;
70908;SDS011;58554;52.006;5.926;2022-07-21T09:27:00;25.77;;;19.30;;
70908;SDS011;58554;52.006;5.926;2022-07-21T09:29:35;21.73;;;15.40;;
70908;SDS011;58554;52.006;5.926;2022-07-21T09:32:13;18.87;;;14.20;;
70908;SDS011;58554;52.006;5.926;2022-07-21T09:34:43;21.08;;;14.15;;
70908;SDS011;58554;52.006;5.926;2022-07-21T09:37:15;21.27;;;14.43;;
70908;SDS011;58554;52.006;5.926;2022-07-21T09:39:43;21.50;;;14.60;;
70908;SDS011;58554;52.006;5.926;2022-07-21T09:42:13;23.60;;;15.20;;
70908;SDS011;58554;52.006;5.926;2022-07-21T09:44:44;16.35;;;13.35;;
70908;SDS011;58554;52.006;5.926;2022-07-21T09:47:14;17.43;;;11.77;;
70908;SDS011;58554;52.006;5.926;2022-07-21T09:49:42;13.13;;;10.63;;
70908;SDS011;58554;52.006;5.926;2022-07-21T09:52:26;12.90;;;9.07;;
70908;SDS011;58554;52.006;5.926;2022-07-21T09:54:55;11.25;;;8.38;;
70908;SDS011;58554;52.006;5.926;2022-07-21T09:57:25;11.07;;;7.43;;
70908;SDS011;58554;52.006;5.926;2022-07-21T09:59:53;9.60;;;7.20;;
70908;SDS011;58554;52.006;5.926;2022-07-21T10:02:22;10.33;;;7.70;;
70908;SDS011;58554;52.006;5.926;2022-07-21T10:04:55;10.35;;;7.38;;
70908;SDS011;58554;52.006;5.926;2022-07-21T10:07:27;9.50;;;7.47;;
70908;SDS011;58554;52.006;5.926;2022-07-21T10:09:55;8.95;;;8.00;;
70908;SDS011;58554;52.006;5.926;2022-07-21T10:12:23;10.40;;;7.50;;
70908;SDS011;58554;52.006;5.926;2022-07-21T10:14:52;8.50;;;7.18;;
70908;SDS011;58554;52.006;5.926;2022-07-21T10:17:20;7.87;;;6.97;;
70908;SDS011;58554;52.006;5.926;2022-07-21T10:19:52;7.80;;;6.97;;
70908;SDS011;58554;52.006;5.926;2022-07-21T10:25:15;8.47;;;6.73;;
70908;SDS011;58554;52.006;5.926;2022-07-21T10:30:43;8.57;;;6.47;;
70908;SDS011;58554;52.006;5.926;2022-07-21T10:33:12;8.35;;;6.40;;
70908;SDS011;58554;52.006;5.926;2022-07-21T10:35:42;8.50;;;6.37;;
70908;SDS011;58554;52.006;5.926;2022-07-21T10:40:58;7.57;;;6.63;;
70908;SDS011;58554;52.006;5.926;2022-07-21T10:43:40;9.20;;;6.47;;
70908;SDS011;58554;52.006;5.926;2022-07-21T10:49:04;11.15;;;7.68;;
70908;SDS011;58554;52.006;5.926;2022-07-21T10:54:17;8.00;;;7.20;;
70908;SDS011;58554;52.006;5.926;2022-07-21T11:02:47;11.37;;;7.30;;
70908;SDS011;58554;52.006;5.926;2022-07-21T11:05:18;9.23;;;7.87;;
70908;SDS011;58554;52.006;5.926;2022-07-21T11:10:44;4.17;;;3.77;;
70908;SDS011;58554;52.006;5.926;2022-07-21T11:13:15;4.33;;;3.93;;
70908;SDS011;58554;52.006;5.926;2022-07-21T11:15:44;4.53;;;4.00;;
70908;SDS011;58554;52.006;5.926;2022-07-21T11:18:19;3.57;;;3.23;;
70908;SDS011;58554;52.006;5.926;2022-07-21T11:21:03;3.92;;;3.58;;
70908;SDS011;58554;52.006;5.926;2022-07-21T11:23:37;3.77;;;3.47;;
70908;SDS011;58554;52.006;5.926;2022-07-21T11:26:11;4.00;;;3.60;;
70908;SDS011;58554;52.006;5.926;2022-07-21T11:28:40;4.13;;;3.70;;
70908;SDS011;58554;52.006;5.926;2022-07-21T11:31:09;4.27;;;3.87;;
70908;SDS011;58554;52.006;5.926;2022-07-21T11:33:41;4.63;;;4.20;;
70908;SDS011;58554;52.006;5.926;2022-07-21T11:36:21;4.90;;;4.50;;
70908;SDS011;58554;52.006;5.926;2022-07-21T11:41:33;4.90;;;4.40;;
70908;SDS011;58554;52.006;5.926;2022-07-21T11:44:02;5.97;;;4.63;;
70908;SDS011;58554;52.006;5.926;2022-07-21T11:46:44;5.83;;;4.30;;
70908;SDS011;58554;52.006;5.926;2022-07-21T11:49:13;5.30;;;4.80;;
70908;SDS011;58554;52.006;5.926;2022-07-21T11:51:50;4.73;;;4.33;;
70908;SDS011;58554;52.006;5.926;2022-07-21T11:54:20;5.20;;;4.57;;
70908;SDS011;58554;52.006;5.926;2022-07-21T11:56:52;4.37;;;3.90;;
70908;SDS011;58554;52.006;5.926;2022-07-21T11:59:21;4.40;;;4.00;;
70908;SDS011;58554;52.006;5.926;2022-07-21T12:01:49;4.33;;;3.93;;
70908;SDS011;58554;52.006;5.926;2022-07-21T12:04:26;5.10;;;4.60;;
70908;SDS011;58554;52.006;5.926;2022-07-21T12:06:57;4.90;;;4.23;;
70908;SDS011;58554;52.006;5.926;2022-07-21T12:09:24;9.20;;;4.23;;
70908;SDS011;58554;52.006;5.926;2022-07-21T12:11:54;6.67;;;6.07;;
70908;SDS011;58554;52.006;5.926;2022-07-21T12:14:31;6.30;;;5.70;;
70908;SDS011;58554;52.006;5.926;2022-07-21T12:17:06;7.17;;;6.47;;
70908;SDS011;58554;52.006;5.926;2022-07-21T12:19:32;8.10;;;6.90;;
70908;SDS011;58554;52.006;5.926;2022-07-21T12:21:59;7.27;;;6.10;;
70908;SDS011;58554;52.006;5.926;2022-07-21T12:27:19;8.10;;;6.63;;
70908;SDS011;58554;52.006;5.926;2022-07-21T12:29:47;7.43;;;6.23;;
70908;SDS011;58554;52.006;5.926;2022-07-21T12:32:14;9.57;;;6.90;;
70908;SDS011;58554;52.006;5.926;2022-07-21T12:35:15;7.10;;;6.40;;
70908;SDS011;58554;52.006;5.926;2022-07-21T12:37:54;7.70;;;6.20;;
70908;SDS011;58554;52.006;5.926;2022-07-21T12:40:24;7.13;;;6.40;;
70908;SDS011;58554;52.006;5.926;2022-07-21T12:43:04;7.13;;;6.43;;
70908;SDS011;58554;52.006;5.926;2022-07-21T12:45:43;7.10;;;6.40;;
70908;SDS011;58554;52.006;5.926;2022-07-21T12:48:23;7.63;;;6.73;;
70908;SDS011;58554;52.006;5.926;2022-07-21T12:51:11;7.85;;;6.65;;
70908;SDS011;58554;52.006;5.926;2022-07-21T12:53:44;7.43;;;6.63;;
70908;SDS011;58554;52.006;5.926;2022-07-21T12:56:13;8.77;;;7.60;;
70908;SDS011;58554;52.006;5.926;2022-07-21T12:58:47;8.23;;;6.73;;
70908;SDS011;58554;52.006;5.926;2022-07-21T13:01:16;8.80;;;6.80;;
70908;SDS011;58554;52.006;5.926;2022-07-21T13:06:13;9.63;;;7.43;;
70908;SDS011;58554;52.006;5.926;2022-07-21T13:08:41;9.18;;;6.70;;
70908;SDS011;58554;52.006;5.926;2022-07-21T13:11:08;6.70;;;5.27;;
70908;SDS011;58554;52.006;5.926;2022-07-21T13:16:07;5.87;;;5.27;;
70908;SDS011;58554;52.006;5.926;2022-07-21T13:18:34;5.23;;;4.73;;
70908;SDS011;58554;52.006;5.926;2022-07-21T13:21:01;5.33;;;4.83;;
70908;SDS011;58554;52.006;5.926;2022-07-21T13:23:30;6.47;;;5.40;;
70908;SDS011;58554;52.006;5.926;2022-07-21T13:25:56;6.57;;;5.73;;
70908;SDS011;58554;52.006;5.926;2022-07-21T13:28:23;5.70;;;4.80;;
70908;SDS011;58554;52.006;5.926;2022-07-21T13:30:49;6.13;;;5.53;;
70908;SDS011;58554;52.006;5.926;2022-07-21T13:33:19;6.03;;;4.57;;
70908;SDS011;58554;52.006;5.926;2022-07-21T13:35:45;6.73;;;5.70;;
70908;SDS011;58554;52.006;5.926;2022-07-21T13:38:11;7.07;;;6.20;;
70908;SDS011;58554;52.006;5.926;2022-07-21T13:40:39;6.73;;;5.57;;
70908;SDS011;58554;52.006;5.926;2022-07-21T13:43:07;6.23;;;5.63;;
70908;SDS011;58554;52.006;5.926;2022-07-21T13:45:34;7.13;;;6.13;;
70908;SDS011;58554;52.006;5.926;2022-07-21T13:48:01;7.27;;;6.03;;
70908;SDS011;58554;52.006;5.926;2022-07-21T13:50:30;7.93;;;5.93;;
70908;SDS011;58554;52.006;5.926;2022-07-21T13:52:56;6.67;;;6.03;;
70908;SDS011;58554;52.006;5.926;2022-07-21T13:55:23;7.00;;;6.30;;
70908;SDS011;58554;52.006;5.926;2022-07-21T13:57:49;6.47;;;5.80;;
70908;SDS011;58554;52.006;5.926;2022-07-21T14:00:16;6.80;;;5.90;;
70908;SDS011;58554;52.006;5.926;2022-07-21T14:02:43;7.00;;;5.87;;
70908;SDS011;58554;52.006;5.926;2022-07-21T14:05:09;6.83;;;5.87;;
70908;SDS011;58554;52.006;5.926;2022-07-21T14:07:38;6.97;;;5.93;;
70908;SDS011;58554;52.006;5.926;2022-07-21T14:10:06;8.50;;;6.37;;
70908;SDS011;58554;52.006;5.926;2022-07-21T14:12:34;6.47;;;5.60;;
70908;SDS011;58554;52.006;5.926;2022-07-21T14:15:00;6.20;;;5.60;;
70908;SDS011;58554;52.006;5.926;2022-07-21T14:17:27;6.13;;;5.53;;
70908;SDS011;58554;52.006;5.926;2022-07-21T14:19:53;5.90;;;5.30;;
70908;SDS011;58554;52.006;5.926;2022-07-21T14:22:20;5.83;;;5.00;;
70908;SDS011;58554;52.006;5.926;2022-07-21T14:24:49;6.43;;;4.90;;
70908;SDS011;58554;52.006;5.926;2022-07-21T14:27:15;6.20;;;5.20;;
70908;SDS011;58554;52.006;5.926;2022-07-21T14:29:42;4.87;;;4.37;;
70908;SDS011;58554;52.006;5.926;2022-07-21T14:32:09;5.60;;;5.07;;
70908;SDS011;58554;52.006;5.926;2022-07-21T14:34:35;4.85;;;3.70;;
70908;SDS011;58554;52.006;5.926;2022-07-21T14:37:02;4.23;;;3.87;;
70908;SDS011;58554;52.006;5.926;2022-07-21T14:39:28;4.90;;;4.10;;
70908;SDS011;58554;52.006;5.926;2022-07-21T14:41:57;3.53;;;3.13;;
70908;SDS011;58554;52.006;5.926;2022-07-21T14:44:24;3.77;;;2.87;;
70908;SDS011;58554;52.006;5.926;2022-07-21T14:46:50;2.70;;;2.40;;
70908;SDS011;58554;52.006;5.926;2022-07-21T14:49:16;2.70;;;2.23;;
70908;SDS011;58554;52.006;5.926;2022-07-21T14:51:43;2.63;;;2.27;;
70908;SDS011;58554;52.006;5.926;2022-07-21T14:54:09;3.03;;;2.00;;
70908;SDS011;58554;52.006;5.926;2022-07-21T14:56:36;2.57;;;2.37;;
70908;SDS011;58554;52.006;5.926;2022-07-21T14:59:05;3.17;;;2.10;;
70908;SDS011;58554;52.006;5.926;2022-07-21T15:01:31;2.13;;;1.93;;
70908;SDS011;58554;52.006;5.926;2022-07-21T15:03:58;4.20;;;2.17;;
70908;SDS011;58554;52.006;5.926;2022-07-21T15:06:24;2.97;;;2.03;;
70908;SDS011;58554;52.006;5.926;2022-07-21T15:08:51;2.70;;;2.17;;
70908;SDS011;58554;52.006;5.926;2022-07-21T15:11:17;2.70;;;1.97;;
70908;SDS011;58554;52.006;5.926;2022-07-21T15:13:43;3.50;;;2.07;;